createdAt,value
2022-10-13T00:00:53.102Z,9.09
2022-10-13T00:03:21.200Z,9.08
2022-10-13T00:05:51.002Z,9.11
2022-10-13T00:08:21.178Z,9.09
2022-10-13T00:10:52.129Z,9.12
2022-10-13T00:13:21.245Z,9.17
2022-10-13T00:15:49.750Z,9.20
2022-10-13T00:18:20.090Z,9.18
2022-10-13T00:20:51.256Z,9.23
2022-10-13T00:23:19.678Z,9.22
2022-10-13T00:25:53.284Z,9.22
2022-10-13T00:28:21.697Z,9.22
2022-10-13T00:30:49.742Z,9.22
2022-10-13T00:33:17.778Z,9.24
2022-10-13T00:35:49.326Z,9.24
2022-10-13T00:38:19.640Z,9.26
2022-10-13T00:40:49.622Z,9.25
2022-10-13T00:43:22.464Z,9.26
2022-10-13T00:45:52.049Z,9.32
2022-10-13T00:48:23.746Z,9.36
2022-10-13T00:50:52.647Z,9.38
2022-10-13T00:53:24.532Z,9.38
2022-10-13T00:55:54.440Z,9.37
2022-10-13T00:58:26.663Z,9.40
2022-10-13T01:00:54.974Z,9.43
2022-10-13T01:03:23.638Z,9.47
2022-10-13T01:05:53.695Z,9.47
2022-10-13T01:08:22.933Z,9.43
2022-10-13T01:11:01.780Z,9.53
2022-10-13T01:13:38.570Z,9.51
2022-10-13T01:16:14.274Z,9.47
2022-10-13T01:18:49.982Z,9.54
2022-10-13T01:21:24.743Z,9.59
2022-10-13T01:24:41.630Z,9.56
2022-10-13T01:27:46.570Z,9.58
2022-10-13T01:30:19.216Z,9.62
2022-10-13T01:33:13.091Z,9.67
2022-10-13T01:35:50.572Z,9.67
2022-10-13T01:38:28.043Z,9.66
2022-10-13T01:41:03.434Z,9.67
2022-10-13T01:43:38.354Z,9.70
2022-10-13T01:46:13.577Z,9.73
2022-10-13T01:48:44.695Z,9.79
2022-10-13T01:51:17.588Z,9.78
2022-10-13T01:53:46.230Z,9.83
2022-10-13T01:56:15.163Z,9.82
2022-10-13T01:58:43.436Z,9.83
2022-10-13T02:01:37.417Z,9.81
2022-10-13T02:04:18.770Z,9.88
2022-10-13T02:06:52.198Z,9.87
2022-10-13T02:09:26.735Z,9.94
2022-10-13T02:11:59.834Z,9.94
2022-10-13T02:14:31.166Z,9.95
2022-10-13T02:17:04.554Z,9.99
2022-10-13T02:19:35.938Z,9.97
2022-10-13T02:22:04.661Z,10.02
2022-10-13T02:24:33.560Z,9.98
2022-10-13T02:27:01.875Z,10.02
2022-10-13T02:29:29.935Z,10.05
2022-10-13T02:31:57.965Z,10.03
2022-10-13T02:34:27.485Z,10.02
2022-10-13T02:36:55.497Z,10.09
2022-10-13T02:39:23.544Z,10.07
2022-10-13T02:41:51.728Z,10.04
2022-10-13T02:44:19.749Z,10.09
2022-10-13T02:46:47.847Z,10.14
2022-10-13T02:49:15.882Z,10.10
2022-10-13T02:51:45.619Z,10.18
2022-10-13T02:54:13.704Z,10.14
2022-10-13T02:56:41.966Z,10.14
2022-10-13T02:59:10.039Z,10.15
2022-10-13T03:01:41.450Z,10.12
2022-10-13T03:04:10.043Z,10.10
2022-10-13T03:06:38.382Z,10.11
2022-10-13T03:09:07.872Z,10.11
2022-10-13T03:11:35.851Z,10.07
2022-10-13T03:14:03.832Z,10.08
2022-10-13T03:16:32.202Z,10.08
2022-10-13T03:19:00.332Z,10.07
2022-10-13T03:21:28.436Z,10.08
2022-10-13T03:23:56.553Z,10.11
2022-10-13T03:26:25.943Z,10.10
2022-10-13T03:28:54.272Z,10.11
2022-10-13T03:31:22.567Z,10.10
2022-10-13T03:33:51.699Z,10.11
2022-10-13T03:36:19.987Z,10.15
2022-10-13T03:38:48.073Z,10.15
2022-10-13T03:41:17.735Z,10.23
2022-10-13T03:43:47.416Z,10.27
2022-10-13T03:46:17.534Z,10.29
2022-10-13T03:48:46.116Z,10.31
2022-10-13T03:51:16.603Z,10.36
2022-10-13T03:53:44.867Z,10.39
2022-10-13T03:56:15.602Z,10.41
2022-10-13T03:58:44.139Z,10.42
2022-10-13T04:01:15.092Z,10.43
2022-10-13T04:03:43.158Z,10.45
2022-10-13T04:06:11.209Z,10.51
2022-10-13T04:08:39.275Z,10.56
2022-10-13T04:11:09.304Z,10.58
2022-10-13T04:13:37.469Z,10.63
2022-10-13T04:16:07.481Z,10.67
2022-10-13T04:18:39.991Z,10.69
2022-10-13T04:21:13.674Z,10.80
2022-10-13T04:23:41.850Z,10.75
2022-10-13T04:26:16.982Z,10.76
2022-10-13T04:28:46.193Z,10.76
2022-10-13T04:31:14.468Z,10.77
2022-10-13T04:33:44.499Z,10.79
2022-10-13T04:36:14.620Z,10.78
2022-10-13T04:38:42.995Z,10.77
2022-10-13T04:41:12.191Z,10.79
2022-10-13T04:43:40.398Z,10.81
2022-10-13T04:46:11.765Z,10.83
2022-10-13T04:48:39.863Z,10.83
2022-10-13T04:51:11.858Z,10.87
2022-10-13T04:53:40.765Z,10.85
2022-10-13T04:56:11.041Z,10.85
2022-10-13T04:58:40.155Z,10.83
2022-10-13T05:01:15.396Z,10.81
2022-10-13T05:03:46.160Z,10.81
2022-10-13T05:06:20.662Z,10.82
2022-10-13T05:08:48.751Z,10.80
2022-10-13T05:11:16.878Z,10.81
2022-10-13T05:13:45.039Z,10.79
2022-10-13T05:16:15.915Z,10.80
2022-10-13T05:18:44.437Z,10.79
2022-10-13T05:21:16.627Z,10.82
2022-10-13T05:23:46.435Z,10.83
2022-10-13T05:26:17.003Z,10.84
2022-10-13T05:28:45.721Z,10.81
2022-10-13T05:31:16.207Z,10.80
2022-10-13T05:33:45.262Z,10.78
2022-10-13T05:36:15.610Z,10.78
2022-10-13T05:38:45.442Z,10.75
2022-10-13T05:41:15.486Z,10.76
2022-10-13T05:43:43.943Z,10.77
2022-10-13T05:46:12.327Z,10.81
2022-10-13T05:48:40.556Z,10.84
2022-10-13T05:51:15.426Z,10.84
2022-10-13T05:53:51.942Z,10.85
2022-10-13T05:56:25.793Z,10.87
2022-10-13T05:59:00.305Z,10.90
2022-10-13T06:01:32.558Z,10.89
2022-10-13T06:04:05.125Z,10.92
2022-10-13T06:06:33.284Z,10.94
2022-10-13T06:09:02.918Z,10.96
2022-10-13T06:11:31.028Z,10.98
2022-10-13T06:13:59.117Z,11.03
2022-10-13T06:16:27.466Z,11.06
2022-10-13T06:18:55.653Z,11.07
2022-10-13T06:21:24.268Z,11.09
2022-10-13T06:23:52.230Z,11.10
2022-10-13T06:26:21.598Z,11.21
2022-10-13T06:28:51.766Z,11.20
2022-10-13T06:31:21.499Z,11.20
2022-10-13T06:33:49.626Z,11.23
2022-10-13T06:36:17.675Z,11.28
2022-10-13T06:38:48.050Z,11.33
2022-10-13T06:41:16.124Z,11.35
2022-10-13T06:43:47.763Z,11.36
2022-10-13T06:46:15.794Z,11.38
2022-10-13T06:48:43.847Z,11.39
2022-10-13T06:51:13.070Z,11.42
2022-10-13T06:53:41.084Z,11.45
2022-10-13T06:56:11.535Z,11.47
2022-10-13T06:58:40.138Z,11.52
2022-10-13T07:01:13.226Z,11.54
2022-10-13T07:03:41.303Z,11.57
2022-10-13T07:06:10.573Z,11.57
2022-10-13T07:13:11.567Z,11.66
2022-10-13T07:15:40.244Z,11.67
2022-10-13T07:18:10.061Z,11.71
2022-10-13T07:20:38.095Z,11.72
2022-10-13T07:23:06.280Z,11.78
2022-10-13T07:25:34.372Z,11.80
2022-10-13T07:28:02.433Z,11.80
2022-10-13T07:30:30.808Z,11.80
2022-10-13T07:33:00.105Z,11.83
2022-10-13T07:35:31.814Z,11.89
2022-10-13T07:38:00.288Z,11.93
2022-10-13T07:40:28.351Z,11.95
2022-10-13T07:42:57.465Z,11.97
2022-10-13T07:45:26.072Z,11.98
2022-10-13T07:47:54.379Z,12.00
2022-10-13T07:50:22.395Z,12.04
2022-10-13T07:52:51.914Z,12.05
2022-10-13T07:55:20.012Z,12.08
2022-10-13T07:57:48.022Z,12.10
2022-10-13T08:00:16.627Z,12.14
2022-10-13T08:02:44.745Z,12.16
2022-10-13T08:05:12.809Z,12.18
2022-10-13T08:07:40.900Z,12.24
2022-10-13T08:10:11.024Z,12.29
2022-10-13T08:12:39.197Z,12.38
2022-10-13T08:15:08.708Z,12.40
2022-10-13T08:17:37.089Z,12.42
2022-10-13T08:20:06.694Z,12.47
2022-10-13T08:22:35.310Z,12.52
2022-10-13T08:25:03.516Z,12.52
2022-10-13T08:27:50.102Z,12.55
2022-10-13T08:30:19.149Z,12.62
2022-10-13T08:32:47.463Z,12.74
2022-10-13T08:35:16.009Z,12.76
2022-10-13T08:37:44.310Z,12.80
2022-10-13T08:40:16.460Z,12.88
2022-10-13T08:42:46.604Z,12.96
2022-10-13T08:45:40.369Z,13.00
2022-10-13T08:48:15.004Z,13.10
2022-10-13T08:50:45.319Z,13.15
2022-10-13T08:53:19.619Z,13.21
2022-10-13T08:55:51.606Z,13.27
2022-10-13T08:58:24.695Z,13.24
2022-10-13T09:01:01.766Z,13.30
2022-10-13T09:03:31.020Z,13.35
2022-10-13T09:06:11.725Z,13.42
2022-10-13T09:08:44.246Z,13.51
2022-10-13T09:11:13.953Z,13.67
2022-10-13T09:13:43.820Z,13.84
2022-10-13T09:16:12.181Z,14.04
2022-10-13T09:18:40.617Z,14.24
2022-10-13T09:21:22.301Z,14.35
2022-10-13T09:23:51.726Z,14.54
2022-10-13T09:26:23.827Z,14.70
2022-10-13T09:28:53.773Z,14.80
2022-10-13T09:31:27.049Z,14.91
2022-10-13T09:34:00.050Z,14.99
2022-10-13T09:36:28.569Z,15.11
2022-10-13T09:39:13.758Z,15.19
2022-10-13T09:41:43.434Z,15.13
2022-10-13T09:44:15.958Z,15.04
2022-10-13T09:46:51.518Z,15.03
2022-10-13T09:49:31.269Z,15.14
2022-10-13T09:52:03.938Z,15.20
2022-10-13T09:54:44.724Z,15.37
2022-10-13T09:57:19.483Z,15.28
2022-10-13T09:59:51.732Z,15.40
2022-10-13T10:02:31.842Z,15.48
2022-10-13T10:05:06.318Z,15.65
2022-10-13T10:07:35.052Z,15.65
2022-10-13T10:10:09.292Z,15.69
2022-10-13T10:12:42.059Z,15.77
2022-10-13T10:15:21.396Z,15.88
2022-10-13T10:17:55.589Z,15.97
2022-10-13T10:20:43.551Z,15.93
2022-10-13T10:23:15.981Z,15.88
2022-10-13T10:25:48.241Z,15.94
2022-10-13T10:28:38.088Z,15.95
2022-10-13T10:31:20.278Z,15.94
2022-10-13T10:34:00.271Z,15.93
2022-10-13T10:36:35.725Z,15.95
2022-10-13T10:39:15.563Z,15.82
2022-10-13T10:41:49.990Z,15.82
2022-10-13T10:44:22.495Z,15.93
2022-10-13T10:46:55.734Z,15.94
2022-10-13T10:49:28.624Z,15.89
2022-10-13T10:51:56.552Z,15.82
2022-10-13T10:54:37.422Z,15.91
2022-10-13T10:57:13.196Z,15.89
2022-10-13T10:59:51.441Z,15.87
2022-10-13T11:02:43.048Z,15.90
2022-10-13T11:05:11.567Z,15.84
2022-10-13T11:08:00.055Z,15.67
2022-10-13T11:10:29.530Z,15.66
2022-10-13T11:13:22.364Z,15.56
2022-10-13T11:15:50.670Z,15.47
2022-10-13T11:19:05.655Z,15.38
2022-10-13T11:22:23.278Z,15.30
2022-10-13T11:24:59.303Z,15.34
2022-10-13T11:27:45.787Z,15.33
2022-10-13T11:30:50.638Z,15.16
2022-10-13T11:33:37.656Z,15.00
2022-10-13T11:36:44.045Z,14.93
2022-10-13T11:39:37.763Z,14.73
2022-10-13T11:42:22.555Z,14.72
2022-10-13T11:44:56.890Z,14.64
2022-10-13T11:48:02.197Z,14.58
2022-10-13T11:50:38.532Z,14.63
2022-10-13T11:53:17.514Z,14.62
2022-10-13T11:55:50.513Z,14.63
2022-10-13T11:58:22.373Z,14.61
2022-10-13T12:00:58.454Z,14.58
2022-10-13T12:03:31.921Z,14.45
2022-10-13T12:06:03.611Z,14.35
2022-10-13T12:08:35.158Z,14.29
2022-10-13T12:11:07.741Z,14.21
2022-10-13T12:13:37.542Z,14.17
2022-10-13T12:16:08.288Z,14.20
2022-10-13T12:18:39.071Z,14.21
2022-10-13T12:21:12.532Z,14.26
2022-10-13T12:23:41.216Z,14.22
2022-10-13T12:26:14.992Z,14.15
2022-10-13T12:28:52.229Z,14.14
2022-10-13T12:31:22.802Z,14.10
2022-10-13T12:33:55.838Z,14.06
2022-10-13T12:36:29.355Z,14.01
2022-10-13T12:39:02.861Z,13.97
2022-10-13T12:41:33.273Z,14.12
2022-10-13T12:44:05.821Z,14.09
2022-10-13T12:46:42.745Z,14.12
2022-10-13T12:49:16.116Z,14.13
2022-10-13T12:51:46.126Z,14.05
2022-10-13T12:54:20.914Z,13.94
2022-10-13T12:56:52.406Z,14.07
2022-10-13T12:59:27.170Z,14.16
2022-10-13T13:02:01.045Z,14.19
2022-10-13T13:04:32.418Z,14.24
2022-10-13T13:07:01.888Z,14.22
2022-10-13T13:09:31.624Z,14.22
2022-10-13T13:12:27.443Z,14.23
2022-10-13T13:14:57.928Z,14.20
2022-10-13T13:20:26.083Z,14.17
2022-10-13T13:22:54.269Z,14.17
2022-10-13T13:25:22.573Z,14.15
2022-10-13T13:27:51.193Z,14.17
2022-10-13T13:30:22.466Z,14.09
2022-10-13T13:32:50.776Z,14.08
2022-10-13T13:35:19.020Z,14.13
2022-10-13T13:37:49.844Z,14.23
2022-10-13T13:40:25.923Z,14.19
2022-10-13T13:42:54.928Z,14.17
2022-10-13T13:45:25.511Z,14.16
2022-10-13T13:47:56.738Z,14.15
2022-10-13T13:50:29.563Z,14.19
2022-10-13T13:52:58.063Z,14.17
2022-10-13T13:55:26.349Z,14.11
2022-10-13T13:57:54.409Z,14.15
2022-10-13T14:00:24.550Z,14.12
2022-10-13T14:02:52.736Z,14.19
2022-10-13T14:05:20.763Z,14.18
2022-10-13T14:07:53.903Z,14.23
2022-10-13T14:10:22.055Z,14.23
2022-10-13T14:12:50.233Z,14.07
2022-10-13T14:15:18.834Z,14.10
2022-10-13T14:17:48.232Z,14.10
2022-10-13T14:20:16.426Z,14.03
2022-10-13T14:22:44.685Z,14.09
2022-10-13T14:25:13.035Z,14.08
2022-10-13T14:27:41.026Z,14.07
2022-10-13T14:30:10.642Z,14.08
2022-10-13T14:32:40.950Z,14.05
2022-10-13T14:35:10.752Z,13.99
2022-10-13T14:37:39.240Z,14.00
2022-10-13T14:40:08.428Z,13.95
2022-10-13T14:42:36.513Z,13.96
2022-10-13T14:45:06.560Z,14.01
2022-10-13T14:47:34.701Z,14.03
2022-10-13T14:50:05.688Z,13.95
2022-10-13T14:52:35.316Z,14.06
2022-10-13T14:55:03.563Z,13.95
2022-10-13T14:57:31.640Z,13.91
2022-10-13T15:00:02.113Z,13.80
2022-10-13T15:02:31.067Z,13.76
2022-10-13T15:04:59.191Z,13.86
2022-10-13T15:07:29.561Z,13.84
2022-10-13T15:10:06.641Z,13.78
2022-10-13T15:12:35.464Z,13.85
2022-10-13T15:15:03.497Z,13.77
2022-10-13T15:17:33.219Z,13.77
2022-10-13T15:20:01.715Z,13.80
2022-10-13T15:22:29.715Z,13.77
2022-10-13T15:24:59.292Z,13.81
2022-10-13T15:27:27.438Z,13.78
2022-10-13T15:29:55.700Z,13.67
2022-10-13T15:32:24.055Z,13.78
2022-10-13T15:34:52.696Z,13.86
2022-10-13T15:37:20.815Z,13.83
2022-10-13T15:39:52.075Z,13.87
2022-10-13T15:42:25.814Z,13.88
2022-10-13T15:45:10.742Z,13.86
2022-10-13T15:47:39.377Z,13.85
2022-10-13T15:50:08.680Z,13.64
2022-10-13T15:52:39.856Z,13.63
2022-10-13T15:55:08.708Z,13.68
2022-10-13T15:57:38.457Z,13.77
2022-10-13T16:00:09.205Z,13.78
2022-10-13T16:02:37.296Z,13.72
2022-10-13T16:05:05.989Z,13.77
2022-10-13T16:07:34.083Z,13.80
2022-10-13T16:10:02.334Z,13.81
2022-10-13T16:12:30.434Z,13.72
2022-10-13T16:15:00.029Z,13.77
2022-10-13T16:17:28.172Z,13.80
2022-10-13T16:19:56.461Z,13.81
2022-10-13T16:22:25.552Z,13.79
2022-10-13T16:24:53.730Z,13.72
2022-10-13T16:27:22.369Z,13.67
2022-10-13T16:29:50.597Z,13.68
2022-10-13T16:32:20.100Z,13.62
2022-10-13T16:34:49.570Z,13.67
2022-10-13T16:37:17.591Z,13.67
2022-10-13T16:39:51.244Z,13.63
2022-10-13T16:42:19.958Z,13.59
2022-10-13T16:44:48.029Z,13.59
2022-10-13T16:47:18.602Z,13.59
2022-10-13T16:49:48.455Z,13.56
2022-10-13T16:52:16.549Z,13.53
2022-10-13T16:54:44.600Z,13.52
2022-10-13T16:57:12.881Z,13.49
2022-10-13T16:59:41.151Z,13.53
2022-10-13T17:02:14.199Z,13.56
2022-10-13T17:04:42.439Z,13.53
2022-10-13T17:07:12.291Z,13.55
2022-10-13T17:09:40.408Z,13.54
2022-10-13T17:12:08.829Z,13.51
2022-10-13T17:14:36.997Z,13.53
2022-10-13T17:17:05.077Z,13.49
2022-10-13T17:19:33.172Z,13.45
2022-10-13T17:22:01.270Z,13.45
2022-10-13T17:24:30.969Z,13.47
2022-10-13T17:26:59.047Z,13.47
2022-10-13T17:29:27.525Z,13.45
2022-10-13T17:31:55.770Z,13.38
2022-10-13T17:34:23.740Z,13.38
2022-10-13T17:36:51.870Z,13.39
2022-10-13T17:39:20.126Z,13.32
2022-10-13T17:41:49.557Z,13.35
2022-10-13T17:44:20.533Z,13.27
2022-10-13T17:46:49.344Z,13.30
2022-10-13T17:49:18.207Z,13.25
2022-10-13T17:51:46.691Z,13.30
2022-10-13T17:54:16.655Z,13.28
2022-10-13T17:56:45.495Z,13.28
2022-10-13T17:59:15.632Z,13.28
2022-10-13T18:01:43.831Z,13.27
2022-10-13T18:04:14.217Z,13.27
2022-10-13T18:06:44.347Z,13.28
2022-10-13T18:09:15.017Z,13.25
2022-10-13T18:11:49.900Z,13.21
2022-10-13T18:14:21.207Z,13.28
2022-10-13T18:16:49.961Z,13.23
2022-10-13T18:19:18.254Z,13.23
2022-10-13T18:21:46.376Z,13.28
2022-10-13T18:24:14.402Z,13.21
2022-10-13T18:26:42.681Z,13.21
2022-10-13T18:29:12.503Z,13.20
2022-10-13T18:31:42.806Z,13.11
2022-10-13T18:34:14.293Z,13.20
2022-10-13T18:36:43.945Z,13.20
2022-10-13T18:39:14.348Z,13.15
2022-10-13T18:41:42.736Z,13.15
2022-10-13T18:44:11.006Z,13.14
2022-10-13T18:46:41.298Z,13.12
2022-10-13T18:49:12.504Z,13.11
2022-10-13T18:51:40.894Z,13.11
2022-10-13T18:54:09.506Z,13.08
2022-10-13T18:56:38.081Z,13.12
2022-10-13T18:59:08.082Z,13.07
2022-10-13T19:01:37.897Z,13.00
2022-10-13T19:04:08.730Z,13.07
2022-10-13T19:06:37.022Z,13.08
2022-10-13T19:09:09.054Z,13.10
2022-10-13T19:11:38.369Z,13.09
2022-10-13T19:14:09.043Z,13.10
2022-10-13T19:16:39.026Z,13.09
2022-10-13T19:19:11.055Z,13.08
2022-10-13T19:21:40.095Z,13.06
2022-10-13T19:24:09.334Z,13.11
2022-10-13T19:26:38.027Z,13.05
2022-10-13T19:29:08.077Z,13.01
2022-10-13T19:31:37.142Z,13.05
2022-10-13T19:34:05.444Z,13.02
2022-10-13T19:36:38.900Z,12.97
2022-10-13T19:39:11.822Z,12.94
2022-10-13T19:41:40.567Z,12.92
2022-10-13T19:44:08.872Z,12.98
2022-10-13T19:46:37.641Z,12.96
2022-10-13T19:49:09.700Z,12.97
2022-10-13T19:51:39.422Z,12.89
2022-10-13T19:54:07.570Z,12.84
2022-10-13T19:56:39.001Z,12.81
2022-10-13T19:59:07.106Z,12.77
2022-10-13T20:01:39.879Z,12.73
2022-10-13T20:04:08.128Z,12.68
2022-10-13T20:06:37.336Z,12.63
2022-10-13T20:09:07.162Z,12.54
2022-10-13T20:11:35.168Z,12.57
2022-10-13T20:14:03.686Z,12.44
2022-10-13T20:16:31.799Z,12.44
2022-10-13T20:19:01.968Z,12.36
2022-10-13T20:21:30.529Z,12.32
2022-10-13T20:23:58.851Z,12.33
2022-10-13T20:26:28.315Z,12.26
2022-10-13T20:28:58.174Z,12.18
2022-10-13T20:31:26.766Z,12.18
2022-10-13T20:33:55.941Z,12.17
2022-10-13T20:36:25.490Z,12.08
2022-10-13T20:38:54.166Z,12.09
2022-10-13T20:41:24.750Z,12.02
2022-10-13T20:43:55.480Z,12.02
2022-10-13T20:46:24.778Z,11.99
2022-10-13T20:49:11.341Z,11.97
2022-10-13T20:51:41.203Z,11.98
2022-10-13T20:54:09.653Z,11.82
2022-10-13T20:56:37.640Z,11.83
2022-10-13T20:59:09.328Z,11.79
2022-10-13T21:01:38.021Z,11.83
2022-10-13T21:04:06.549Z,11.73
2022-10-13T21:06:34.736Z,11.75
2022-10-13T21:09:03.256Z,11.69
2022-10-13T21:11:31.327Z,11.68
2022-10-13T21:13:59.484Z,11.65
2022-10-13T21:16:29.944Z,11.61
2022-10-13T21:18:59.220Z,11.60
2022-10-13T21:21:29.411Z,11.67
2022-10-13T21:23:58.984Z,11.66
2022-10-13T21:26:28.244Z,11.57
2022-10-13T21:28:57.039Z,11.48
2022-10-13T21:31:26.138Z,11.51
2022-10-13T21:33:55.938Z,11.57
2022-10-13T21:36:25.673Z,11.56
2022-10-13T21:38:55.703Z,11.57
2022-10-13T21:41:24.419Z,11.56
2022-10-13T21:43:53.581Z,11.54
2022-10-13T21:46:23.299Z,11.57
2022-10-13T21:48:55.591Z,11.60
2022-10-13T21:51:29.382Z,11.52
2022-10-13T21:53:59.535Z,11.57
2022-10-13T21:56:28.502Z,11.60
2022-10-13T21:58:57.103Z,11.60
2022-10-13T22:01:25.600Z,11.45
2022-10-13T22:03:57.729Z,11.39
2022-10-13T22:06:26.848Z,11.41
2022-10-13T22:08:56.419Z,11.41
2022-10-13T22:11:26.568Z,11.39
2022-10-13T22:13:56.616Z,11.38
2022-10-13T22:16:26.807Z,11.36
2022-10-13T22:18:58.091Z,11.29
2022-10-13T22:21:29.210Z,11.31
2022-10-13T22:23:58.123Z,11.38
2022-10-13T22:26:27.087Z,11.30
2022-10-13T22:28:55.602Z,11.38
2022-10-13T22:31:23.640Z,11.39
2022-10-13T22:33:53.753Z,11.37
2022-10-13T22:36:25.982Z,11.35
2022-10-13T22:38:57.015Z,11.37
2022-10-13T22:41:25.580Z,11.41
2022-10-13T22:43:55.396Z,11.39
2022-10-13T22:46:25.219Z,11.39
2022-10-13T22:48:53.539Z,11.38
2022-10-13T22:51:25.684Z,11.48
2022-10-13T22:53:54.105Z,11.41
2022-10-13T22:56:24.294Z,11.39
2022-10-13T22:58:53.563Z,11.42
2022-10-13T23:01:22.710Z,11.42
2022-10-13T23:03:52.267Z,11.44
2022-10-13T23:06:22.533Z,11.40
2022-10-13T23:08:52.199Z,11.36
2022-10-13T23:11:20.249Z,11.39
2022-10-13T23:13:49.186Z,11.45
2022-10-13T23:16:19.812Z,11.27
2022-10-13T23:18:48.027Z,11.12
2022-10-13T23:21:18.493Z,11.17
2022-10-13T23:23:47.369Z,11.14
2022-10-13T23:26:18.325Z,11.18
2022-10-13T23:28:46.619Z,11.19
2022-10-13T23:31:16.955Z,11.16
2022-10-13T23:33:45.370Z,11.18
2022-10-13T23:36:17.058Z,11.18
2022-10-13T23:38:46.245Z,11.15
2022-10-13T23:41:17.323Z,11.09
2022-10-13T23:43:45.515Z,11.09
2022-10-13T23:46:13.478Z,11.13
2022-10-13T23:48:41.916Z,11.14
2022-10-13T23:51:12.087Z,11.11
2022-10-13T23:53:40.745Z,11.10
2022-10-13T23:56:10.492Z,11.13
2022-10-13T23:58:41.593Z,11.07
